Time;durP1;ratioP1;P1;durP2;ratioP2;P2;SDS_P1;SDS_P2;PMS_P1;PMS_P2;Temp;Humidity;BMP_temperature;BMP_pressure;BME280_temperature;BME280_humidity;BME280_pressure;Samples;Min_cycle;Max_cycle;Signal;HPM_P1;HPM_P2
2022/10/07 00:01:11;;;;;;;8.23;3.85;;;8.20;99.90;;;;;;4988976;28;20074;-77
2022/10/07 00:03:37;;;;;;;7.25;3.30;;;8.20;99.90;;;;;;4977715;28;20060;-77
2022/10/07 00:06:09;;;;;;;7.18;3.40;;;8.20;99.90;;;;;;4979936;28;20071;-77
2022/10/07 00:08:36;;;;;;;8.38;3.65;;;8.20;99.90;;;;;;4972869;28;20097;-77
2022/10/07 00:11:07;;;;;;;5.28;3.35;;;8.10;99.90;;;;;;4965245;28;20398;-77
2022/10/07 00:13:35;;;;;;;5.93;3.38;;;8.10;99.90;;;;;;4972849;28;20126;-77
2022/10/07 00:16:13;;;;;;;5.80;3.55;;;8.10;99.90;;;;;;4972105;28;20401;-77
2022/10/07 00:18:40;;;;;;;6.30;3.40;;;8.10;99.90;;;;;;4983600;28;20045;-77
2022/10/07 00:21:10;;;;;;;7.38;3.92;;;8.10;99.90;;;;;;4960070;28;20039;-77
2022/10/07 00:23:35;;;;;;;7.90;3.92;;;8.10;99.90;;;;;;4991861;28;20572;-77
2022/10/07 00:26:03;;;;;;;5.47;3.30;;;8.10;99.90;;;;;;4978710;28;20125;-77
2022/10/07 00:28:29;;;;;;;9.68;3.47;;;8.10;99.90;;;;;;4966829;28;20045;-77
2022/10/07 00:31:06;;;;;;;8.52;3.60;;;8.00;99.90;;;;;;4977871;28;20161;-78
2022/10/07 00:33:35;;;;;;;6.10;3.17;;;8.00;99.90;;;;;;4987335;28;20104;-78
2022/10/07 00:36:04;;;;;;;10.43;3.55;;;8.00;99.90;;;;;;4986644;28;20035;-78
2022/10/07 00:38:30;;;;;;;6.82;3.58;;;8.00;99.90;;;;;;4972225;28;20049;-78
2022/10/07 00:40:56;;;;;;;7.05;3.25;;;8.00;99.90;;;;;;4988884;28;20421;-78
2022/10/07 00:43:28;;;;;;;6.65;3.45;;;8.00;99.90;;;;;;4961257;28;20035;-78
2022/10/07 00:45:57;;;;;;;8.55;3.53;;;8.00;99.90;;;;;;4979939;28;20043;-78
2022/10/07 00:48:28;;;;;;;6.75;3.13;;;8.00;99.90;;;;;;4972156;28;20398;-78
2022/10/07 00:50:56;;;;;;;5.40;3.20;;;8.00;99.90;;;;;;4970642;28;20047;-78
2022/10/07 00:53:25;;;;;;;6.55;3.55;;;8.00;99.90;;;;;;4972046;28;20038;-77
2022/10/07 00:55:50;;;;;;;8.07;3.50;;;8.00;99.90;;;;;;4965607;28;20118;-77
2022/10/07 00:58:18;;;;;;;9.65;3.92;;;7.90;99.90;;;;;;4975778;28;20125;-77
2022/10/07 01:00:43;;;;;;;6.57;3.72;;;7.90;99.90;;;;;;4990959;28;20054;-77
2022/10/07 01:03:09;;;;;;;8.05;4.03;;;7.90;99.90;;;;;;4972015;28;20034;-77
2022/10/07 01:05:35;;;;;;;7.13;4.13;;;7.90;99.90;;;;;;4972220;28;20046;-77
2022/10/07 01:08:01;;;;;;;5.47;3.67;;;7.90;99.90;;;;;;4970813;28;20031;-77
2022/10/07 01:10:34;;;;;;;6.10;3.53;;;7.90;99.90;;;;;;4955063;28;20129;-77
2022/10/07 01:13:39;;;;;;;8.80;3.75;;;7.90;99.90;;;;;;4977286;28;20043;-77
2022/10/07 01:16:14;;;;;;;9.00;3.97;;;7.90;99.90;;;;;;4970749;28;20067;-77
2022/10/07 01:18:51;;;;;;;9.75;3.95;;;7.90;99.90;;;;;;4979393;28;20038;-77
2022/10/07 01:21:38;;;;;;;7.88;4.53;;;7.90;99.90;;;;;;4971718;28;20038;-77
2022/10/07 01:24:22;;;;;;;7.65;4.07;;;7.90;99.90;;;;;;4988200;28;20080;-77
2022/10/07 01:26:56;;;;;;;7.97;3.70;;;7.90;99.90;;;;;;4971668;28;20074;-77
2022/10/07 01:29:28;;;;;;;8.40;3.95;;;7.90;99.90;;;;;;4950682;28;20039;-78
2022/10/07 01:32:05;;;;;;;6.97;3.55;;;7.90;99.90;;;;;;4971539;28;20125;-77
2022/10/07 01:34:33;;;;;;;9.02;3.97;;;7.90;99.90;;;;;;4970485;28;20045;-77
2022/10/07 01:37:02;;;;;;;8.65;3.80;;;7.90;99.90;;;;;;4963772;28;20417;-77
2022/10/07 01:39:37;;;;;;;13.23;4.95;;;8.00;99.90;;;;;;4980541;28;20049;-77
2022/10/07 01:42:04;;;;;;;9.25;3.78;;;8.00;99.90;;;;;;4981156;28;20072;-77
2022/10/07 01:44:30;;;;;;;7.68;3.28;;;8.00;99.90;;;;;;4998902;28;20041;-77
2022/10/07 01:46:56;;;;;;;11.15;3.78;;;8.00;99.90;;;;;;4971735;28;20118;-77
2022/10/07 01:49:22;;;;;;;6.90;3.40;;;8.10;99.90;;;;;;4967120;28;20085;-77
2022/10/07 01:52:05;;;;;;;10.20;3.55;;;8.00;99.90;;;;;;4979625;28;20081;-77
2022/10/07 01:54:46;;;;;;;7.53;3.10;;;8.10;99.90;;;;;;4951954;28;20078;-77
2022/10/07 01:57:17;;;;;;;11.60;3.33;;;8.10;99.90;;;;;;4989714;28;20556;-77
2022/10/07 02:00:02;;;;;;;11.73;3.92;;;8.10;99.90;;;;;;4973797;28;20041;-77
2022/10/07 02:02:46;;;;;;;5.35;3.13;;;8.10;99.90;;;;;;4971974;28;20050;-77
2022/10/07 02:05:55;;;;;;;8.23;3.35;;;8.20;99.90;;;;;;4972222;28;20397;-77
2022/10/07 02:08:35;;;;;;;7.35;3.30;;;8.20;99.90;;;;;;4968350;28;20490;-77
2022/10/07 02:11:13;;;;;;;8.60;3.83;;;8.20;99.90;;;;;;4974678;28;20085;-77
2022/10/07 02:14:00;;;;;;;8.00;3.38;;;8.20;99.90;;;;;;4973850;28;20046;-77
2022/10/07 02:16:29;;;;;;;9.63;3.55;;;8.10;99.90;;;;;;4956622;28;20047;-77
2022/10/07 02:18:57;;;;;;;10.30;3.50;;;8.20;99.90;;;;;;4982268;28;20041;-77
2022/10/07 02:21:28;;;;;;;8.60;3.70;;;8.10;99.90;;;;;;4974665;28;20051;-77
2022/10/07 02:23:55;;;;;;;9.10;3.60;;;8.10;99.90;;;;;;4974634;28;20054;-77
2022/10/07 02:26:23;;;;;;;9.60;4.00;;;8.10;99.90;;;;;;4958335;28;20567;-77
2022/10/07 02:28:51;;;;;;;7.78;3.42;;;8.10;99.90;;;;;;4988433;28;20051;-77
2022/10/07 02:31:23;;;;;;;8.63;3.85;;;8.10;99.90;;;;;;4972883;28;20129;-77
2022/10/07 02:33:52;;;;;;;7.32;3.42;;;8.10;99.90;;;;;;4970111;28;20397;-77
2022/10/07 02:36:29;;;;;;;8.65;3.92;;;8.00;99.90;;;;;;4971121;28;20583;-77
2022/10/07 02:38:59;;;;;;;10.95;4.05;;;8.10;99.90;;;;;;4972956;28;20039;-77
2022/10/07 02:41:48;;;;;;;10.00;4.35;;;8.00;99.90;;;;;;4972631;28;20105;-77
2022/10/07 02:44:32;;;;;;;7.95;4.15;;;8.00;99.90;;;;;;4963869;28;20207;-77
2022/10/07 02:47:04;;;;;;;10.77;4.80;;;7.90;99.90;;;;;;4970331;28;20054;-77
2022/10/07 02:49:37;;;;;;;8.02;3.97;;;8.00;99.90;;;;;;4968572;28;20050;-77
2022/10/07 02:52:09;;;;;;;9.60;4.13;;;8.00;99.90;;;;;;4974141;28;20043;-77
2022/10/07 02:55:02;;;;;;;9.20;4.68;;;7.90;99.90;;;;;;4974221;28;20516;-77
2022/10/07 02:57:32;;;;;;;9.45;4.57;;;7.90;99.90;;;;;;4979476;28;20042;-77
2022/10/07 02:59:59;;;;;;;13.05;4.50;;;7.90;99.90;;;;;;4974491;28;20274;-77
2022/10/07 03:02:33;;;;;;;7.88;4.45;;;7.80;99.90;;;;;;4972676;28;20039;-77
2022/10/07 03:04:59;;;;;;;9.43;4.63;;;7.80;99.90;;;;;;4973587;28;20045;-77
2022/10/07 03:07:25;;;;;;;8.25;4.60;;;7.80;99.90;;;;;;4987236;28;20026;-77
2022/10/07 03:09:51;;;;;;;8.93;4.53;;;7.70;99.90;;;;;;4982564;28;20045;-77
2022/10/07 03:12:17;;;;;;;9.20;4.50;;;7.70;99.90;;;;;;4984894;28;20046;-77
2022/10/07 03:14:43;;;;;;;11.35;5.03;;;7.70;99.90;;;;;;4980996;28;20042;-77
2022/10/07 03:17:09;;;;;;;7.38;5.15;;;7.70;99.90;;;;;;4955882;28;20039;-77
2022/10/07 03:19:36;;;;;;;10.32;4.85;;;7.70;99.90;;;;;;4973710;28;20063;-77
2022/10/07 03:22:02;;;;;;;10.57;4.60;;;7.70;99.90;;;;;;4973426;28;20432;-77
2022/10/07 03:24:30;;;;;;;10.55;4.65;;;7.60;99.90;;;;;;4979464;28;20038;-77
2022/10/07 03:26:55;;;;;;;7.88;4.50;;;7.70;99.90;;;;;;4973504;28;20043;-77
2022/10/07 03:29:21;;;;;;;14.57;5.60;;;7.70;99.90;;;;;;4964811;28;20413;-77
2022/10/07 03:31:47;;;;;;;10.57;4.70;;;7.60;99.90;;;;;;4965147;28;20348;-77
2022/10/07 03:34:12;;;;;;;8.27;4.55;;;7.60;99.90;;;;;;4973751;28;20050;-77
2022/10/07 03:36:38;;;;;;;9.43;4.78;;;7.60;99.90;;;;;;4973101;28;20050;-77
2022/10/07 03:39:03;;;;;;;9.65;4.85;;;7.60;99.90;;;;;;4976712;28;20043;-77
2022/10/07 03:41:29;;;;;;;10.65;4.90;;;7.50;99.90;;;;;;4972838;28;20070;-78
2022/10/07 03:43:56;;;;;;;11.60;4.63;;;7.60;99.90;;;;;;4973436;28;20397;-78
2022/10/07 03:46:22;;;;;;;7.30;4.95;;;7.50;99.90;;;;;;4973112;28;20042;-77
2022/10/07 03:48:47;;;;;;;8.18;5.05;;;7.50;99.90;;;;;;4971643;28;20059;-77
2022/10/07 03:51:13;;;;;;;13.80;5.70;;;7.50;99.90;;;;;;4969514;28;20166;-77
2022/10/07 03:53:39;;;;;;;10.02;4.75;;;7.50;99.90;;;;;;4969980;28;20474;-77
2022/10/07 03:56:06;;;;;;;10.32;4.75;;;7.50;99.90;;;;;;4953526;29;20047;-77
2022/10/07 03:58:32;;;;;;;10.93;5.32;;;7.50;99.90;;;;;;4964792;28;20117;-77
2022/10/07 04:01:09;;;;;;;10.63;5.80;;;7.50;99.90;;;;;;4972703;28;20074;-77
2022/10/07 04:03:34;;;;;;;9.73;5.80;;;7.50;99.90;;;;;;4988843;28;20043;-77
2022/10/07 04:06:02;;;;;;;7.97;4.93;;;7.50;99.90;;;;;;4980602;28;20405;-77
2022/10/07 04:08:29;;;;;;;9.07;4.68;;;7.50;99.90;;;;;;4958443;28;20078;-77
2022/10/07 04:10:56;;;;;;;8.90;4.82;;;7.50;99.90;;;;;;4969285;28;20039;-77
2022/10/07 04:13:22;;;;;;;9.57;5.90;;;7.50;99.90;;;;;;4958936;28;20449;-77
2022/10/07 04:15:48;;;;;;;9.48;5.57;;;7.40;99.90;;;;;;4969888;28;20038;-77
2022/10/07 04:18:14;;;;;;;10.27;5.50;;;7.40;99.90;;;;;;4953321;28;20142;-77
2022/10/07 04:20:40;;;;;;;10.18;5.05;;;7.40;99.90;;;;;;4980487;28;20101;-77
2022/10/07 04:23:05;;;;;;;8.60;5.15;;;7.40;99.90;;;;;;4972578;28;20075;-77
2022/10/07 04:25:34;;;;;;;8.68;4.80;;;7.40;99.90;;;;;;4955296;28;20125;-77
2022/10/07 04:28:29;;;;;;;9.52;5.03;;;7.40;99.90;;;;;;4967446;28;21005;-77
2022/10/07 04:30:54;;;;;;;11.13;5.22;;;7.40;99.90;;;;;;4956554;28;20051;-77
2022/10/07 04:33:22;;;;;;;10.13;4.70;;;7.40;99.90;;;;;;4971520;28;20513;-77
2022/10/07 04:35:49;;;;;;;13.57;6.00;;;7.40;99.90;;;;;;4971128;28;20532;-77
2022/10/07 04:38:16;;;;;;;13.93;5.53;;;7.40;99.90;;;;;;4970839;28;20039;-77
2022/10/07 04:40:45;;;;;;;9.80;5.28;;;7.40;99.90;;;;;;4971961;28;20125;-77
2022/10/07 04:43:19;;;;;;;14.35;6.03;;;7.40;99.90;;;;;;4972487;28;20437;-77
2022/10/07 04:46:00;;;;;;;11.18;5.70;;;7.40;99.90;;;;;;4959942;28;20040;-77
2022/10/07 04:48:26;;;;;;;14.05;6.07;;;7.50;99.90;;;;;;4975789;28;20070;-77
2022/10/07 04:50:51;;;;;;;13.23;5.65;;;7.40;99.90;;;;;;4969912;28;20520;-77
2022/10/07 04:53:18;;;;;;;11.98;5.65;;;7.50;99.90;;;;;;4970953;28;20579;-78
2022/10/07 04:55:47;;;;;;;14.70;5.78;;;7.50;99.90;;;;;;4989411;28;20046;-77
2022/10/07 04:58:14;;;;;;;14.63;5.40;;;7.50;99.90;;;;;;4981099;28;20043;-77
2022/10/07 05:00:43;;;;;;;14.85;6.57;;;7.50;99.90;;;;;;4971046;28;20505;-77
2022/10/07 05:03:08;;;;;;;13.95;5.90;;;7.60;99.90;;;;;;4969086;28;20043;-78
2022/10/07 05:05:34;;;;;;;14.85;5.97;;;7.60;99.90;;;;;;4959160;28;20485;-78
2022/10/07 05:08:02;;;;;;;13.68;6.40;;;7.60;99.90;;;;;;4972526;28;20053;-77
2022/10/07 05:10:28;;;;;;;12.80;6.25;;;7.70;99.90;;;;;;4973081;28;20053;-77
2022/10/07 05:12:57;;;;;;;12.65;6.43;;;7.70;99.90;;;;;;4980970;28;20058;-77
2022/10/07 05:15:22;;;;;;;19.58;6.80;;;7.70;99.90;;;;;;4976628;28;20034;-78
2022/10/07 05:17:49;;;;;;;12.43;6.35;;;7.70;99.90;;;;;;4980137;28;20043;-77
2022/10/07 05:20:14;;;;;;;13.70;6.20;;;7.80;99.90;;;;;;4957442;28;20042;-77
2022/10/07 05:22:40;;;;;;;13.43;6.47;;;7.80;99.90;;;;;;4967487;28;20405;-78
2022/10/07 05:25:09;;;;;;;14.65;7.10;;;7.80;99.90;;;;;;4970053;28;20097;-78
2022/10/07 05:27:37;;;;;;;15.95;7.13;;;7.90;99.90;;;;;;4974512;28;20056;-77
2022/10/07 05:30:04;;;;;;;13.60;6.50;;;7.80;99.90;;;;;;4974042;28;20050;-77
2022/10/07 05:32:29;;;;;;;13.75;6.40;;;7.90;99.90;;;;;;4973147;28;20147;-77
2022/10/07 05:34:55;;;;;;;15.30;7.22;;;7.90;99.90;;;;;;4965773;28;20072;-77
2022/10/07 05:37:21;;;;;;;15.57;6.50;;;7.90;99.90;;;;;;4981489;28;20485;-77
2022/10/07 05:39:46;;;;;;;13.85;6.20;;;7.90;99.90;;;;;;4975987;28;20371;-77
2022/10/07 05:42:12;;;;;;;14.63;6.68;;;7.90;99.90;;;;;;4956896;28;20039;-77
2022/10/07 05:44:38;;;;;;;16.13;6.82;;;7.90;99.90;;;;;;4974583;28;20113;-78
2022/10/07 05:47:04;;;;;;;14.35;6.10;;;8.00;99.90;;;;;;4978182;28;20046;-78
2022/10/07 05:49:30;;;;;;;14.02;6.35;;;8.00;99.90;;;;;;4997379;28;20042;-77
2022/10/07 05:51:58;;;;;;;18.23;6.65;;;8.00;99.90;;;;;;4961628;28;20071;-77
2022/10/07 05:54:23;;;;;;;17.05;6.18;;;8.10;99.90;;;;;;4972827;28;20035;-78
2022/10/07 05:56:52;;;;;;;12.50;6.00;;;8.10;99.90;;;;;;4973626;28;20126;-78
2022/10/07 05:59:24;;;;;;;14.13;6.03;;;8.10;99.90;;;;;;4960555;28;20042;-78
2022/10/07 06:01:55;;;;;;;11.30;5.93;;;8.10;99.90;;;;;;4973104;28;20524;-79
2022/10/07 06:04:20;;;;;;;11.05;6.10;;;8.10;99.90;;;;;;4983070;28;20042;-77
2022/10/07 06:06:46;;;;;;;10.35;6.18;;;8.10;99.90;;;;;;4977303;28;20050;-77
2022/10/07 06:14:40;;;;;;;9.82;5.60;;;8.30;99.90;;;;;;4981606;28;20050;-78
2022/10/07 06:17:06;;;;;;;10.45;5.85;;;8.30;99.90;;;;;;5004452;28;20048;-78
2022/10/07 06:19:32;;;;;;;10.98;5.35;;;8.30;99.90;;;;;;4994620;28;20121;-78
2022/10/07 06:21:58;;;;;;;15.25;5.40;;;8.40;99.90;;;;;;4994165;28;20645;-79
2022/10/07 06:24:24;;;;;;;13.95;5.93;;;8.40;99.90;;;;;;4994177;28;20042;-78
2022/10/07 06:26:50;;;;;;;17.33;6.47;;;8.40;99.90;;;;;;4994552;28;20125;-78
2022/10/07 06:29:15;;;;;;;14.48;5.93;;;8.40;99.90;;;;;;4974435;28;20172;-79
2022/10/07 06:31:41;;;;;;;15.68;5.63;;;8.50;99.90;;;;;;4982652;28;20046;-79
2022/10/07 06:34:07;;;;;;;14.40;5.32;;;8.60;99.90;;;;;;4987525;28;20463;-79
2022/10/07 06:36:32;;;;;;;13.13;5.43;;;8.60;99.90;;;;;;4995797;28;20046;-79
2022/10/07 06:38:58;;;;;;;16.05;5.65;;;8.60;99.90;;;;;;4995836;28;20049;-79
2022/10/07 06:41:24;;;;;;;13.70;4.95;;;8.60;99.90;;;;;;4975933;28;20035;-79
2022/10/07 06:43:55;;;;;;;15.80;4.50;;;8.70;99.90;;;;;;4975758;28;20050;-79
2022/10/07 06:46:21;;;;;;;10.75;4.20;;;8.70;99.90;;;;;;4991501;28;20045;-79
2022/10/07 06:48:47;;;;;;;11.07;4.70;;;8.80;99.90;;;;;;4976615;28;20035;-79
2022/10/07 06:51:18;;;;;;;10.40;4.38;;;8.90;99.90;;;;;;4984525;28;20541;-82
2022/10/07 06:53:45;;;;;;;15.68;5.00;;;9.00;99.90;;;;;;4962725;28;20121;-80
2022/10/07 06:56:12;;;;;;;10.65;3.92;;;9.00;99.90;;;;;;4959506;28;20073;-79
2022/10/07 06:58:38;;;;;;;10.27;3.80;;;9.10;99.90;;;;;;4989923;28;20113;-80
2022/10/07 07:01:07;;;;;;;11.38;4.03;;;9.20;99.90;;;;;;4955915;28;20047;-80
2022/10/07 07:03:33;;;;;;;14.88;5.13;;;9.30;99.90;;;;;;4990090;28;20102;-81
2022/10/07 07:06:01;;;;;;;10.02;4.05;;;9.30;99.90;;;;;;4970693;28;20126;-79
2022/10/07 07:08:30;;;;;;;11.80;4.15;;;9.40;99.90;;;;;;4956763;28;20093;-78
2022/10/07 07:13:55;;;;;;;8.20;3.67;;;9.60;99.90;;;;;;4988576;28;20056;-78
2022/10/07 07:16:24;;;;;;;12.02;3.72;;;9.70;99.90;;;;;;4957397;28;20046;-82
2022/10/07 07:19:13;;;;;;;11.80;3.83;;;9.70;99.90;;;;;;4971924;28;20378;-82
2022/10/07 07:21:39;;;;;;;5.65;3.17;;;9.80;99.90;;;;;;4977022;28;20108;-81
2022/10/07 07:24:06;;;;;;;12.57;3.72;;;9.80;99.90;;;;;;4996789;28;20061;-81
2022/10/07 07:26:32;;;;;;;12.05;3.55;;;9.90;99.90;;;;;;4981768;28;20034;-82
2022/10/07 07:29:03;;;;;;;10.52;3.45;;;10.00;99.90;;;;;;4986482;28;20420;-81
2022/10/07 07:31:32;;;;;;;9.75;3.30;;;10.00;99.90;;;;;;4940172;29;20047;-81
2022/10/07 07:34:06;;;;;;;15.00;4.10;;;10.10;99.90;;;;;;4955208;29;20580;-81
2022/10/07 07:36:35;;;;;;;8.07;3.08;;;10.10;99.90;;;;;;4955243;29;20186;-80
2022/10/07 07:39:08;;;;;;;8.02;3.30;;;10.20;99.90;;;;;;4971169;28;20394;-81
2022/10/07 07:41:40;;;;;;;12.23;2.92;;;10.20;99.90;;;;;;4954605;28;20312;-81
2022/10/07 07:44:10;;;;;;;7.72;2.70;;;10.20;99.90;;;;;;4954526;29;20043;-81
2022/10/07 07:46:43;;;;;;;8.48;3.50;;;10.30;99.90;;;;;;4954641;28;20043;-81
2022/10/07 07:49:10;;;;;;;10.23;3.15;;;10.30;99.90;;;;;;4953693;28;20468;-81
2022/10/07 07:51:37;;;;;;;7.82;3.00;;;10.40;99.90;;;;;;4938437;29;20264;-81
2022/10/07 07:54:03;;;;;;;10.52;3.35;;;10.50;99.90;;;;;;4938227;29;20039;-81
2022/10/07 07:56:32;;;;;;;11.45;3.30;;;10.50;99.90;;;;;;4970242;28;20046;-81
2022/10/07 07:58:59;;;;;;;10.23;3.17;;;10.60;99.90;;;;;;4938151;29;20043;-80
2022/10/07 08:01:25;;;;;;;11.38;3.35;;;10.60;99.90;;;;;;4955831;28;20083;-80
2022/10/07 08:03:51;;;;;;;9.40;3.30;;;10.70;99.90;;;;;;4968326;28;20039;-80
2022/10/07 08:06:19;;;;;;;8.02;2.80;;;10.80;99.90;;;;;;4987051;28;20048;-79
2022/10/07 08:08:50;;;;;;;10.23;3.40;;;10.90;99.90;;;;;;4991883;28;20030;-80
2022/10/07 08:11:19;;;;;;;8.65;2.90;;;11.00;99.90;;;;;;4987956;28;20038;-80
2022/10/07 08:13:45;;;;;;;10.32;2.95;;;11.00;99.90;;;;;;4999566;28;20125;-80
2022/10/07 08:16:33;;;;;;;8.43;2.83;;;11.00;99.90;;;;;;4981231;28;20046;-80
2022/10/07 08:18:59;;;;;;;11.00;3.35;;;11.00;99.90;;;;;;4998393;28;20081;-80
2022/10/07 08:21:31;;;;;;;9.93;2.80;;;11.20;99.90;;;;;;4964888;28;20039;-80
2022/10/07 08:24:00;;;;;;;10.00;3.13;;;11.20;99.90;;;;;;4944565;28;20062;-81
2022/10/07 08:26:30;;;;;;;11.15;3.58;;;11.30;99.90;;;;;;4976622;28;20050;-80
2022/10/07 08:29:02;;;;;;;8.93;2.65;;;11.40;99.90;;;;;;4983084;28;20045;-79
2022/10/07 08:31:28;;;;;;;8.05;2.63;;;11.40;99.90;;;;;;4966171;28;20854;-81
2022/10/07 08:33:59;;;;;;;9.55;2.92;;;11.50;99.90;;;;;;4964876;28;20042;-81
2022/10/07 08:36:36;;;;;;;11.15;3.28;;;11.60;99.90;;;;;;4997927;28;20616;-81
2022/10/07 08:39:03;;;;;;;11.45;3.22;;;11.70;99.90;;;;;;4982032;28;20580;-81
2022/10/07 08:41:49;;;;;;;17.00;3.20;;;11.80;99.90;;;;;;4981032;28;20130;-81
2022/10/07 08:44:27;;;;;;;10.75;3.15;;;11.90;99.90;;;;;;4956749;28;20157;-81
2022/10/07 08:47:05;;;;;;;9.68;2.85;;;12.00;99.90;;;;;;4954204;29;20069;-81
2022/10/07 08:49:59;;;;;;;9.85;2.88;;;12.10;99.90;;;;;;4978261;28;20042;-82
2022/10/07 08:52:37;;;;;;;5.90;2.60;;;12.10;99.90;;;;;;4971981;28;20042;-81
2022/10/07 08:55:30;;;;;;;12.65;3.30;;;12.30;99.90;;;;;;4983288;28;20517;-82
2022/10/07 08:58:04;;;;;;;7.07;2.90;;;12.50;99.90;;;;;;4996896;28;20038;-81
2022/10/07 09:00:49;;;;;;;8.40;2.25;;;12.70;99.90;;;;;;4980746;28;20337;-82
2022/10/07 09:03:36;;;;;;;8.30;2.40;;;12.90;99.90;;;;;;4958703;28;20034;-82
2022/10/07 09:06:12;;;;;;;7.78;2.35;;;13.00;99.90;;;;;;4980467;28;20038;-81
2022/10/07 09:08:46;;;;;;;7.68;2.20;;;13.20;99.90;;;;;;4992016;28;20039;-81
2022/10/07 09:11:24;;;;;;;9.93;2.58;;;13.30;99.90;;;;;;4964878;28;20046;-81
2022/10/07 09:13:54;;;;;;;11.32;2.40;;;13.40;99.90;;;;;;4981395;28;20501;-81
2022/10/07 09:16:33;;;;;;;6.40;2.03;;;13.60;99.90;;;;;;5000665;28;20564;-82
2022/10/07 09:19:01;;;;;;;6.90;1.95;;;13.70;99.90;;;;;;4991087;28;20047;-81
2022/10/07 09:21:43;;;;;;;8.82;1.95;;;13.80;99.90;;;;;;4979783;28;20035;-82
2022/10/07 09:24:27;;;;;;;8.82;2.05;;;13.90;99.90;;;;;;4990663;28;20046;-82
2022/10/07 09:26:59;;;;;;;;;;;14.00;99.90;;;;;;4982651;28;20046;-81
2022/10/07 09:29:28;;;;;;;12.25;2.38;;;14.10;99.90;;;;;;4978858;28;19925;-82
2022/10/07 09:32:00;;;;;;;9.45;2.25;;;14.40;99.90;;;;;;4979036;28;20043;-81
2022/10/07 09:34:28;;;;;;;8.30;2.42;;;14.60;99.90;;;;;;4983446;28;20081;-83
2022/10/07 09:37:20;;;;;;;9.88;1.73;;;14.80;99.90;;;;;;4984678;28;20038;-82
2022/10/07 09:39:51;;;;;;;9.02;2.20;;;14.90;99.90;;;;;;4997864;28;20042;-81
2022/10/07 09:42:38;;;;;;;8.25;1.95;;;15.00;99.90;;;;;;4960580;28;20043;-81
2022/10/07 09:45:25;;;;;;;7.20;1.77;;;15.20;99.90;;;;;;4967789;28;20057;-81
2022/10/07 09:47:54;;;;;;;6.30;1.63;;;15.40;99.90;;;;;;4999025;28;20493;-82
2022/10/07 09:50:36;;;;;;;8.82;2.03;;;15.50;99.90;;;;;;4960752;28;20525;-81
2022/10/07 09:53:04;;;;;;;6.63;1.42;;;15.50;99.90;;;;;;4964409;28;20074;-81
2022/10/07 09:55:37;;;;;;;8.65;2.00;;;15.50;99.90;;;;;;4979586;28;20493;-81
2022/10/07 09:58:08;;;;;;;9.57;1.92;;;15.60;99.90;;;;;;4981961;28;20382;-81
2022/10/07 10:00:42;;;;;;;8.95;2.13;;;15.80;99.90;;;;;;4987385;28;20041;-81
2022/10/07 10:03:08;;;;;;;9.07;1.50;;;15.90;99.90;;;;;;4966013;28;20073;-81
2022/10/07 10:05:40;;;;;;;7.15;1.67;;;16.10;99.90;;;;;;4971210;28;20070;-82
2022/10/07 10:08:23;;;;;;;7.53;1.58;;;16.40;99.90;;;;;;4955041;28;20078;-82
2022/10/07 10:11:17;;;;;;;9.75;1.88;;;16.50;99.90;;;;;;4980508;28;20038;-81
2022/10/07 10:13:43;;;;;;;5.97;1.58;;;16.80;99.90;;;;;;4968962;28;20042;-81
2022/10/07 10:16:28;;;;;;;7.85;1.60;;;17.00;99.90;;;;;;4986057;28;20092;-81
2022/10/07 10:19:03;;;;;;;6.50;1.35;;;17.30;99.90;;;;;;4961521;28;20182;-81
2022/10/07 10:21:35;;;;;;;11.45;1.50;;;17.50;99.90;;;;;;4977355;28;20038;-81
2022/10/07 10:24:10;;;;;;;7.82;1.42;;;17.50;99.90;;;;;;4995950;28;20036;-82
2022/10/07 10:26:41;;;;;;;7.35;1.35;;;17.40;99.90;;;;;;4994946;28;20486;-82
2022/10/07 10:29:16;;;;;;;5.03;1.30;;;17.30;99.90;;;;;;4986799;28;20124;-82
2022/10/07 10:32:19;;;;;;;7.85;1.73;;;17.30;99.90;;;;;;4973510;28;20038;-81
2022/10/07 10:34:52;;;;;;;6.80;1.30;;;17.30;99.90;;;;;;4976937;28;20133;-81
2022/10/07 10:37:38;;;;;;;8.75;1.55;;;17.50;99.90;;;;;;4981927;28;20049;-80
2022/10/07 10:40:40;;;;;;;8.27;1.48;;;17.70;99.90;;;;;;4944700;28;20085;-83
2022/10/07 10:43:28;;;;;;;4.95;1.65;;;17.70;99.90;;;;;;4984079;28;20092;-83
2022/10/07 10:46:06;;;;;;;9.65;1.30;;;17.80;99.90;;;;;;4987357;28;20081;-82
2022/10/07 10:48:52;;;;;;;5.90;1.40;;;17.90;99.90;;;;;;4972996;28;20129;-81
2022/10/07 10:51:41;;;;;;;6.68;1.58;;;17.90;99.90;;;;;;4947823;28;20047;-80
2022/10/07 10:54:06;;;;;;;9.40;2.20;;;18.00;99.90;;;;;;4985280;28;20042;-80
2022/10/07 10:56:58;;;;;;;6.50;1.45;;;18.00;99.90;;;;;;4974440;28;20452;-81
2022/10/07 10:59:43;;;;;;;5.68;1.50;;;18.00;99.90;;;;;;4984834;28;20058;-81
2022/10/07 11:02:14;;;;;;;10.27;2.30;;;18.00;99.90;;;;;;4987674;28;20113;-82
2022/10/07 11:04:49;;;;;;;9.15;1.75;;;18.00;99.90;;;;;;4972534;28;20288;-80
2022/10/07 11:07:37;;;;;;;6.72;1.70;;;17.90;99.90;;;;;;4975014;28;20093;-81
2022/10/07 11:10:21;;;;;;;7.05;1.73;;;17.80;99.90;;;;;;4990404;28;20057;-79
2022/10/07 11:12:53;;;;;;;8.18;1.90;;;17.50;99.90;;;;;;4987971;28;20051;-80
2022/10/07 11:15:21;;;;;;;5.35;1.63;;;17.50;99.90;;;;;;4951016;28;20050;-82
2022/10/07 11:17:50;;;;;;;6.22;1.55;;;17.40;99.90;;;;;;4979156;28;20042;-81
2022/10/07 11:20:30;;;;;;;10.48;1.73;;;17.30;99.90;;;;;;4993214;28;20057;-80
2022/10/07 11:23:02;;;;;;;7.28;2.08;;;17.30;99.90;;;;;;4949513;28;20035;-78
2022/10/07 11:25:37;;;;;;;8.68;1.58;;;17.40;99.90;;;;;;4963068;28;20117;-77
2022/10/07 11:28:24;;;;;;;7.80;1.75;;;17.70;99.90;;;;;;4977173;28;20051;-77
2022/10/07 11:31:08;;;;;;;8.98;1.80;;;18.20;99.90;;;;;;4972058;28;20090;-77
2022/10/07 11:33:51;;;;;;;8.95;1.50;;;18.40;99.90;;;;;;4953711;28;20080;-78
2022/10/07 11:36:27;;;;;;;7.50;1.48;;;18.70;99.90;;;;;;4949862;28;20383;-78
2022/10/07 11:38:54;;;;;;;9.70;1.65;;;18.90;99.90;;;;;;4978652;28;20509;-79
2022/10/07 11:41:42;;;;;;;8.68;1.58;;;19.00;99.90;;;;;;4975410;28;20042;-78
2022/10/07 11:44:20;;;;;;;5.68;1.38;;;19.10;99.90;;;;;;4968260;28;20128;-78
2022/10/07 11:46:47;;;;;;;8.02;1.55;;;19.20;99.90;;;;;;4989696;28;20035;-78
2022/10/07 11:49:12;;;;;;;6.75;1.52;;;19.30;99.90;;;;;;4976896;28;20104;-78
2022/10/07 11:51:52;;;;;;;4.38;1.30;;;19.40;99.90;;;;;;4960470;28;20043;-78
2022/10/07 11:54:22;;;;;;;4.13;1.10;;;19.50;99.90;;;;;;4957697;28;20043;-78
2022/10/07 11:56:55;;;;;;;6.03;1.48;;;19.30;99.90;;;;;;4972271;28;20421;-78
2022/10/07 11:59:41;;;;;;;4.28;1.08;;;19.20;99.90;;;;;;4976844;28;20142;-79
2022/10/07 12:02:28;;;;;;;7.55;1.50;;;18.90;99.90;;;;;;4956841;28;20515;-78
2022/10/07 12:05:01;;;;;;;6.07;1.20;;;18.60;99.90;;;;;;4974271;28;20050;-79
2022/10/07 12:07:39;;;;;;;6.30;1.25;;;18.40;99.90;;;;;;4944323;28;20039;-78
2022/10/07 12:10:20;;;;;;;5.70;1.50;;;18.40;99.90;;;;;;4975324;28;20045;-77
2022/10/07 12:12:53;;;;;;;5.82;1.23;;;18.20;99.90;;;;;;4971579;28;20046;-78
2022/10/07 12:15:41;;;;;;;5.32;1.48;;;18.10;99.90;;;;;;4956826;28;20129;-78
2022/10/07 12:18:06;;;;;;;7.15;1.20;;;18.00;99.90;;;;;;4971567;28;20043;-78
2022/10/07 12:20:51;;;;;;;5.35;1.17;;;17.90;99.90;;;;;;4952922;28;20097;-77
2022/10/07 12:23:20;;;;;;;6.80;1.20;;;17.80;99.90;;;;;;4963213;28;20039;-78
2022/10/07 12:25:52;;;;;;;4.45;1.45;;;17.80;99.90;;;;;;4968974;28;20049;-79
2022/10/07 12:28:40;;;;;;;4.05;0.90;;;17.80;99.90;;;;;;4965614;28;20150;-78
2022/10/07 12:31:26;;;;;;;6.68;1.42;;;17.80;99.90;;;;;;4937928;28;20138;-78
2022/10/07 12:34:04;;;;;;;6.70;1.42;;;17.80;99.90;;;;;;4949345;29;20054;-77
2022/10/07 12:36:31;;;;;;;6.90;1.63;;;17.80;99.90;;;;;;4925973;29;20086;-77
2022/10/07 12:38:57;;;;;;;7.63;1.40;;;17.80;99.90;;;;;;4928916;29;20119;-78
2022/10/07 12:41:28;;;;;;;5.35;1.27;;;17.80;99.90;;;;;;4965339;28;20047;-78
2022/10/07 12:44:18;;;;;;;7.53;1.42;;;17.90;99.90;;;;;;4933860;29;20100;-77
2022/10/07 12:46:49;;;;;;;6.47;1.42;;;17.70;99.90;;;;;;4933581;29;20044;-78
2022/10/07 12:49:37;;;;;;;4.53;1.52;;;17.70;99.90;;;;;;4938090;29;20513;-78
2022/10/07 12:52:13;;;;;;;7.15;1.33;;;17.70;99.90;;;;;;4925683;29;20035;-78
2022/10/07 12:54:49;;;;;;;7.50;1.10;;;17.70;99.90;;;;;;4933775;29;20079;-77
2022/10/07 12:57:22;;;;;;;5.00;1.02;;;17.70;99.90;;;;;;4933224;29;20039;-77
2022/10/07 13:00:11;;;;;;;6.50;1.10;;;17.70;99.90;;;;;;4933527;29;20078;-77
2022/10/07 13:03:18;;;;;;;6.85;1.42;;;17.70;99.90;;;;;;4931903;29;20505;-78
2022/10/07 13:06:05;;;;;;;7.50;1.33;;;17.90;99.90;;;;;;4965767;28;20043;-78
2022/10/07 13:08:55;;;;;;;5.05;1.30;;;17.90;99.90;;;;;;4934504;29;20072;-77
2022/10/07 13:11:49;;;;;;;3.53;1.27;;;17.90;99.90;;;;;;4954015;28;20039;-77
2022/10/07 13:14:33;;;;;;;6.45;1.92;;;17.90;99.90;;;;;;4939768;29;20040;-77
2022/10/07 13:17:17;;;;;;;3.35;1.10;;;17.90;99.90;;;;;;4938630;29;20047;-78
2022/10/07 13:19:53;;;;;;;5.55;1.48;;;17.90;99.90;;;;;;4930058;29;20040;-77
2022/10/07 13:22:20;;;;;;;4.95;1.05;;;17.90;99.90;;;;;;4957546;28;20635;-77
2022/10/07 13:24:49;;;;;;;3.47;0.90;;;17.70;99.90;;;;;;4933101;29;20036;-77